Latest Coastal Weather Observations for Cape Sorell

IDT60701

Issued at 4:21 am EDT Saturday 28 March 2015 (issued every 10 minutes, with the page automatically refreshed every 10 minutes)

About coastal observations | Map of coastal stations | Coastal observations for TAS | Marine services | Other Formats
Station Details ID: 097000 Name: CAPE SORELL Lat: -42.20 Lon: 145.17 Height: 19.3 m
Data from the previous 72 hours. | See also: Recent months at Cape Sorell
Date/Time
EDT
Temp

°C
Wind Pressure Rain
since 9am
mm
Weather Cloud Vis
km
Sea
Height
m
Swell
Dir
 
Speed
knots
Gust
knots
hPa Trend Height
m
Period
s
Dir
28/04:00am 12.1 WSW 8 10 1021.6 - 2.0 - - - - - - -
28/03:30am 12.6 SW 7 9 1021.7 - 2.0 - - - - - - -
28/03:00am 12.4 SW 5 8 1021.9 - 2.0 - - - - - - -
28/02:30am 12.3 SW 6 9 1022.0 - 2.0 - - - - - - -
28/02:00am 12.5 SW 6 7 1022.1 - 2.0 - - - - - - -
28/01:30am 12.4 SW 11 13 1022.1 - 2.0 - - - - - - -
28/01:00am 12.4 SW 11 13 1022.0 - 2.0 - - - - - - -
28/12:30am 12.5 SW 13 15 1022.1 - 2.0 - - - - - - -
28/12:00am 12.5 SW 13 15 1022.2 - 2.0 - - - - - - -
 
Date/Time
EDT
Temp

°C
Wind Pressure Rain
since 9am
mm
Weather Cloud Vis
km
Sea
Height
m
Swell
Dir
 
Speed
knots
Gust
knots
hPa Trend Height
m
Period
s
Dir
27/11:30pm 12.8 SW 12 15 1022.3 - 2.0 - - - - - - -
27/11:00pm 12.6 SW 13 16 1022.3 - 2.0 - - - - - - -
27/10:30pm 12.6 SSW 11 14 1022.5 - 2.0 - - - - - - -
27/10:00pm 12.8 SSW 12 14 1022.4 - 2.0 - - - - - - -
27/09:30pm 13.0 SSW 11 13 1022.1 - 2.0 - - - - - - -
27/09:00pm 13.0 S 11 13 1022.0 - 2.0 - - - - - - -
27/08:30pm 12.7 SSW 14 17 1021.7 - 2.0 - - - - - - -
27/08:00pm 12.7 SSW 17 21 1021.3 - 2.0 - - - - - - -
27/07:30pm 12.6 SSW 18 21 1020.9 - 2.0 - - - - - - -
27/07:00pm 12.5 SSW 20 23 1020.6 - 2.0 - - - - - - -
27/06:30pm 12.8 SSW 21 26 1020.1 - 2.0 - - - - - - -
27/06:00pm 13.0 SW 24 28 1019.6 - 2.0 - - - - - - -
27/05:30pm 13.1 SSW 24 27 1019.2 - 2.0 - - - - - - -
27/05:00pm 13.4 SSW 24 27 1018.9 - 2.0 - - - - - - -
27/04:30pm 13.1 SSW 25 29 1018.6 - 2.0 - - - - - - -
27/04:00pm 13.4 SSW 26 30 1018.4 - 2.0 - - - - - - -
27/03:30pm 13.6 SSW 26 31 1018.2 - 2.0 - - - - - - -
27/03:00pm 13.9 SSW 26 31 1018.0 - 2.0 - - - - - - -
27/02:30pm 14.2 SSW 28 33 1017.8 - 2.0 - - - - - - -
27/02:00pm 14.6 SSW 28 33 1017.8 - 2.0 - - - - - - -
27/01:30pm 14.2 SSW 28 33 1017.8 - 2.0 - - - - - - -
27/01:00pm 14.5 SSW 29 34 1017.7 - 2.0 - - - - - - -
27/12:30pm 14.3 SSW 29 33 1017.4 - 2.0 - - - - - - -
27/12:00pm 13.5 SSW 21 33 1017.2 - 2.0 Rain - - - - - -
27/11:33am 12.7 S 21 34 1017.3 - 1.0 - - - - - - -
27/11:30am 12.5 S 21 28 1017.4 - 1.0 - - - - - - -
27/11:07am 12.3 S 21 31 1017.0 - 1.0 - - - - - - -
27/11:00am 12.2 S 22 29 1017.0 - 1.0 - - - - - - -
27/10:30am 13.8 SSW 25 32 1015.8 - 0.4 - - - - - - -
27/10:00am 13.2 SSW 26 31 1015.7 - 0.4 - - - - - - -
27/09:30am 12.8 SSW 17 22 1015.3 - 0.2 - - - - - - -
27/09:00am 12.4 SSW 22 27 1014.9 - 8.0 Recent precip. - - - - - -
27/08:30am 12.6 S 15 21 1014.4 - 8.0 - - - - - - -
27/08:00am 12.6 SSW 26 33 1013.5 - 6.8 - - - - - - -
27/07:59am 12.8 SSW 25 33 1013.5 - 6.8 - - - - - - -
27/07:30am 12.9 SW 20 25 1013.1 - 6.2 - - - - - - -
27/07:00am 11.8 SW 13 16 1013.5 - 6.0 - - - - - - -
27/06:30am 10.4 E 3 6 1013.6 - 5.6 - - - - - - -
27/06:00am 10.1 E 4 5 1013.5 - 5.2 Recent precip. - - - - - -
27/05:30am 10.0 E 6 7 1013.3 - 5.2 - - - - - - -
27/05:00am 9.7 ESE 4 5 1013.0 - 4.6 - - - - - - -
27/04:30am 9.4 SSE 3 4 1012.7 - 4.6 - - - - - - -
27/04:00am 9.6 SE 5 6 1012.3 - 4.6 - - - - - - -
27/03:30am 9.8 SE 6 7 1012.4 - 4.6 - - - - - - -
27/03:00am 9.9 SSE 7 11 1012.2 - 4.6 - - - - - - -
27/02:30am 8.7 SE 7 8 1012.0 - 4.6 - - - - - - -
27/02:00am 8.3 E 7 9 1011.2 - 4.6 - - - - - - -
27/01:30am 9.1 E 8 9 1010.9 - 4.6 - - - - - - -
27/01:00am 10.0 NE 10 13 1010.2 - 4.6 - - - - - - -
27/12:30am 11.0 NE 13 15 1010.1 - 4.6 - - - - - - -
27/12:00am 10.6 NNE 13 15 1010.1 - 4.6 Recent precip. - - - - - -
 
Date/Time
EDT
Temp

°C
Wind Pressure Rain
since 9am
mm
Weather Cloud Vis
km
Sea
Height
m
Swell
Dir
 
Speed
knots
Gust
knots
hPa Trend Height
m
Period
s
Dir
26/11:30pm 10.6 NNE 8 10 1010.4 - 4.6 - - - - - - -
26/11:00pm 10.9 NE 8 11 1010.6 - 3.8 - - - - - - -
26/10:30pm 10.3 ENE 5 7 1011.0 - 2.6 - - - - - - -
26/10:00pm 10.2 ESE 4 5 1011.3 - 2.6 - - - - - - -
26/09:30pm 10.6 SSW 3 6 1011.5 - 2.4 - - - - - - -
26/09:00pm 11.0 SW 7 11 1011.5 - 2.0 Recent precip. - - - - - -
26/08:30pm 11.0 SW 12 16 1011.2 - 1.6 - - - - - - -
26/08:00pm 12.8 NNW 8 10 1010.7 - 0.8 - - - - - - -
26/07:30pm 12.8 N 10 12 1010.7 - 0.8 - - - - - - -
26/07:00pm 13.2 N 11 13 1010.7 - 0.8 - - - - - - -
26/06:30pm 13.4 N 4 6 1010.6 - 0.8 - - - - - - -
26/06:00pm 14.4 NNW 3 5 1010.7 - 0.8 - - - - - - -
26/05:30pm 14.5 N 2 3 1010.5 - 0.8 - - - - - - -
26/05:00pm 14.7 N 2 3 1010.5 - 0.8 - - - - - - -
26/04:30pm 14.9 N 3 4 1010.6 - 0.6 - - - - - - -
26/04:00pm 15.3 W 5 8 1010.6 - 0.6 - - - - - - -
26/03:30pm 15.5 N 5 7 1010.5 - 0.6 - - - - - - -
26/03:00pm 15.0 N 6 8 1010.8 - 0.6 - - - - - - -
26/02:30pm 15.2 N 7 9 1010.7 - 0.6 - - - - - - -
26/02:00pm 13.3 N 9 12 1010.8 - 0.6 - - - - - - -
26/01:30pm 13.0 N 6 9 1011.0 - 0.6 - - - - - - -
26/01:00pm 11.0 NNW 7 15 1011.1 - 0.6 - - - - - - -
26/12:30pm 11.9 NNW 10 15 1011.2 - 0.4 - - - - - - -
26/12:00pm 13.4 N 8 11 1011.2 - 0.0 - - - - - - -
26/11:30am 13.0 NNW 8 11 1011.1 - 0.0 - - - - - - -
26/11:00am 12.3 NNE 12 15 1011.1 - 0.0 - - - - - - -
26/10:30am 12.8 NNE 13 17 1011.0 - 0.0 - - - - - - -
26/10:00am 11.8 NNE 11 13 1010.8 - 0.0 - - - - - - -
26/09:30am 10.3 NE 11 15 1010.8 - 0.0 - - - - - - -
26/09:00am 10.1 NE 12 15 1010.9 - 3.6 - - - - - - -
26/08:30am 9.7 NE 12 16 1010.8 - 3.6 - - - - - - -
26/08:00am 9.7 NE 16 19 1010.6 - 3.6 - - - - - - -
26/07:30am 9.9 NE 16 19 1010.4 - 3.6 - - - - - - -
26/07:00am 9.9 NNE 17 20 1010.2 - 3.0 - - - - - - -
26/06:30am 9.9 NNE 15 17 1010.1 - 1.8 - - - - - - -
26/06:00am 9.5 NE 11 15 1010.0 - 1.4 Recent precip. - - - - - -
26/05:30am 9.5 ENE 13 17 1009.7 - 1.4 - - - - - - -
26/05:00am 10.2 NE 15 17 1009.9 - 1.2 - - - - - - -
26/04:30am 11.1 N 15 19 1010.0 - 1.2 - - - - - - -
26/04:00am 11.1 N 12 15 1010.3 - 1.0 - - - - - - -
26/03:30am 11.2 NNW 14 18 1010.9 - 0.8 - - - - - - -
26/03:00am 11.3 NW 18 25 1010.7 - 0.4 - - - - - - -
26/02:30am 12.7 NW 22 36 1010.0 - 0.4 - - - - - - -
26/02:26am 13.2 N 22 36 1009.8 - 0.4 - - - - - - -
26/02:24am 13.6 NNE 22 36 1009.5 - 0.4 - - - - - - -
26/02:23am 14.5 NNE 21 36 1009.5 - 0.4 - - - - - - -
26/02:00am 14.1 NE 15 18 1009.2 - 0.4 - - - - - - -
26/01:30am 13.9 NE 17 20 1009.5 - 0.4 - - - - - - -
26/01:00am 13.6 NE 14 19 1010.0 - 0.4 - - - - - - -
26/12:30am 13.4 NE 15 20 1010.4 - 0.4 - - - - - - -
26/12:00am 13.7 NNE 21 25 1010.7 - 0.4 - - - - - - -
 
Date/Time
EDT
Temp

°C
Wind Pressure Rain
since 9am
mm
Weather Cloud Vis
km
Sea
Height
m
Swell
Dir
 
Speed
knots
Gust
knots
hPa Trend Height
m
Period
s
Dir
25/11:30pm 13.9 NNE 21 26 1010.7 - 0.4 - - - - - - -
25/11:00pm 14.1 NNE 19 24 1011.1 - 0.4 - - - - - - -
25/10:30pm 14.2 NNE 19 23 1011.4 - 0.4 - - - - - - -
25/10:00pm 14.4 NNE 24 29 1011.0 - 0.4 - - - - - - -
25/09:55pm 14.3 NNE 23 29 1010.8 - 0.4 - - - - - - -
25/09:30pm 14.3 NNE 15 19 1011.6 - 0.4 - - - - - - -
25/09:00pm 14.9 N 16 19 1011.7 - 0.4 - - - - - - -
25/08:30pm 14.9 N 15 18 1011.5 - 0.4 - - - - - - -
25/08:00pm 14.6 N 14 17 1011.2 - 0.4 - - - - - - -
25/07:30pm 14.7 N 16 19 1011.2 - 0.4 - - - - - - -
25/07:06pm 14.8 N 19 29 1011.2 - 0.4 - - - - - - -
25/07:00pm 14.6 N 22 29 1011.2 - 0.4 - - - - - - -
25/06:56pm 14.7 N 21 29 1011.0 - 0.4 - - - - - - -
25/06:30pm 15.2 N 16 19 1011.4 - 0.4 - - - - - - -
25/06:00pm 15.1 N 15 19 1011.5 - 0.4 - - - - - - -
25/05:30pm 15.7 N 15 19 1011.5 - 0.4 - - - - - - -
25/05:00pm 15.9 N 16 19 1011.5 - 0.4 - - - - - - -
25/04:30pm 16.2 NNW 15 20 1011.6 - 0.4 - - - - - - -
25/04:00pm 15.6 N 16 21 1011.8 - 0.4 - - - - - - -
25/03:30pm 15.6 NNW 19 22 1012.0 - 0.4 - - - - - - -
25/03:00pm 15.5 N 19 24 1012.2 - 0.4 - - - - - - -
25/02:30pm 14.9 N 16 21 1012.7 - 0.4 - - - - - - -
25/02:00pm 13.4 NNW 15 20 1013.3 - 0.4 - - - - - - -
25/01:30pm 14.5 N 19 23 1013.3 - 0.2 - - - - - - -
25/01:00pm 14.0 N 18 24 1013.6 - 0.2 - - - - - - -
25/12:30pm 12.9 NNW 16 23 1014.2 - 0.2 - - - - - - -
25/12:00pm 13.9 N 17 23 1013.9 - 0.0 - - - - - - -
25/11:30am 14.0 N 15 19 1014.3 - 0.0 - - - - - - -
25/11:00am 13.6 N 17 24 1014.6 - 0.0 - - - - - - -
25/10:30am 13.4 NNE 14 18 1014.6 - 0.0 - - - - - - -
25/10:00am 13.4 N 16 19 1014.5 - 0.0 - - - - - - -
25/09:30am 12.9 NNE 14 18 1014.5 - 0.0 - - - - - - -
25/09:00am 13.1 NNE 16 19 1014.4 - 0.0 - - - - - - -
25/08:30am 14.0 N 14 16 1014.2 - 0.0 - - - - - - -
25/08:00am 13.8 NNW 13 19 1014.5 - 0.0 - - - - - - -
25/07:30am 12.8 NNE 13 17 1014.5 - 0.0 - - - - - - -
25/07:00am 13.3 N 14 17 1014.4 - 0.0 - - - - - - -
25/06:30am 13.2 N 13 16 1014.5 - 0.0 - - - - - - -
25/06:00am 12.7 NNW 12 19 1014.7 - 0.0 - - - - - - -
25/05:46am 12.9 NW 15 25 1014.8 - 0.0 - - - - - - -
25/05:30am 13.7 NW 11 16 1014.7 - 0.0 - - - - - - -
25/05:00am 13.7 NNW 12 16 1014.8 - 0.0 - - - - - - -
25/04:30am 13.5 NNW 13 17 1015.1 - 0.0 - - - - - - -

Other Formats:

Comma delimited format used in spreadsheet applications
http://www.bom.gov.au/fwo/IDT60701/IDT60701.94974.axf

JavaScript Object Notation format (JSON) in row-major order
http://www.bom.gov.au/fwo/IDT60701/IDT60701.94974.json